sensor_id;sensor_type;location;lat;lon;timestamp;P1;durP1;ratioP1;P2;durP2;ratioP2
11064;SDS011;5585;52.530;7.320;2024-03-07T00:02:08;25.13;;;21.37;;
11064;SDS011;5585;52.530;7.320;2024-03-07T00:04:35;25.77;;;21.13;;
11064;SDS011;5585;52.530;7.320;2024-03-07T00:07:01;24.70;;;21.30;;
11064;SDS011;5585;52.530;7.320;2024-03-07T00:09:28;23.50;;;20.07;;
11064;SDS011;5585;52.530;7.320;2024-03-07T00:11:55;25.03;;;20.10;;
11064;SDS011;5585;52.530;7.320;2024-03-07T00:14:22;21.93;;;19.07;;
11064;SDS011;5585;52.530;7.320;2024-03-07T00:16:52;23.33;;;19.93;;
11064;SDS011;5585;52.530;7.320;2024-03-07T00:19:18;25.07;;;19.83;;
11064;SDS011;5585;52.530;7.320;2024-03-07T00:21:45;22.47;;;19.47;;
11064;SDS011;5585;52.530;7.320;2024-03-07T00:24:11;23.03;;;19.87;;
11064;SDS011;5585;52.530;7.320;2024-03-07T00:26:39;22.00;;;18.73;;
11064;SDS011;5585;52.530;7.320;2024-03-07T00:29:05;21.13;;;18.83;;
11064;SDS011;5585;52.530;7.320;2024-03-07T00:31:33;23.67;;;20.60;;
11064;SDS011;5585;52.530;7.320;2024-03-07T00:33:59;20.47;;;17.73;;
11064;SDS011;5585;52.530;7.320;2024-03-07T00:36:26;22.33;;;19.53;;
11064;SDS011;5585;52.530;7.320;2024-03-07T00:38:52;21.47;;;18.50;;
11064;SDS011;5585;52.530;7.320;2024-03-07T00:41:19;21.07;;;18.87;;
11064;SDS011;5585;52.530;7.320;2024-03-07T00:43:45;20.50;;;18.30;;
11064;SDS011;5585;52.530;7.320;2024-03-07T00:46:12;20.37;;;18.17;;
11064;SDS011;5585;52.530;7.320;2024-03-07T00:48:40;20.43;;;18.07;;
11064;SDS011;5585;52.530;7.320;2024-03-07T00:51:06;19.13;;;17.03;;
11064;SDS011;5585;52.530;7.320;2024-03-07T00:53:34;19.63;;;16.90;;
11064;SDS011;5585;52.530;7.320;2024-03-07T00:56:01;18.63;;;15.70;;
11064;SDS011;5585;52.530;7.320;2024-03-07T00:58:27;20.00;;;17.73;;
11064;SDS011;5585;52.530;7.320;2024-03-07T01:00:54;18.97;;;16.10;;
11064;SDS011;5585;52.530;7.320;2024-03-07T01:03:20;18.13;;;16.13;;
11064;SDS011;5585;52.530;7.320;2024-03-07T01:05:50;18.57;;;16.60;;
11064;SDS011;5585;52.530;7.320;2024-03-07T01:08:17;19.23;;;17.10;;
11064;SDS011;5585;52.530;7.320;2024-03-07T01:10:43;19.23;;;16.77;;
11064;SDS011;5585;52.530;7.320;2024-03-07T01:13:09;17.60;;;15.00;;
11064;SDS011;5585;52.530;7.320;2024-03-07T01:15:44;17.90;;;16.00;;
11064;SDS011;5585;52.530;7.320;2024-03-07T01:18:10;17.80;;;15.67;;
11064;SDS011;5585;52.530;7.320;2024-03-07T01:20:37;17.57;;;15.73;;
11064;SDS011;5585;52.530;7.320;2024-03-07T01:23:05;18.93;;;16.33;;
11064;SDS011;5585;52.530;7.320;2024-03-07T01:25:32;17.47;;;15.17;;
11064;SDS011;5585;52.530;7.320;2024-03-07T01:27:59;17.07;;;15.10;;
11064;SDS011;5585;52.530;7.320;2024-03-07T01:30:25;16.93;;;15.13;;
11064;SDS011;5585;52.530;7.320;2024-03-07T01:32:53;17.33;;;15.50;;
11064;SDS011;5585;52.530;7.320;2024-03-07T01:35:19;18.10;;;15.50;;
11064;SDS011;5585;52.530;7.320;2024-03-07T01:37:46;16.83;;;15.03;;
11064;SDS011;5585;52.530;7.320;2024-03-07T01:40:14;17.73;;;14.70;;
11064;SDS011;5585;52.530;7.320;2024-03-07T01:42:40;16.53;;;14.83;;
11064;SDS011;5585;52.530;7.320;2024-03-07T01:45:07;16.33;;;14.30;;
11064;SDS011;5585;52.530;7.320;2024-03-07T01:47:34;17.97;;;14.73;;
11064;SDS011;5585;52.530;7.320;2024-03-07T01:50:01;18.07;;;15.50;;
11064;SDS011;5585;52.530;7.320;2024-03-07T01:52:28;16.80;;;15.00;;
11064;SDS011;5585;52.530;7.320;2024-03-07T01:54:55;16.90;;;14.77;;
11064;SDS011;5585;52.530;7.320;2024-03-07T01:57:23;16.43;;;14.73;;
11064;SDS011;5585;52.530;7.320;2024-03-07T01:59:49;17.93;;;15.10;;
11064;SDS011;5585;52.530;7.320;2024-03-07T02:02:16;16.10;;;13.77;;
11064;SDS011;5585;52.530;7.320;2024-03-07T02:04:43;17.37;;;14.50;;
11064;SDS011;5585;52.530;7.320;2024-03-07T02:07:09;16.70;;;14.60;;
11064;SDS011;5585;52.530;7.320;2024-03-07T02:09:36;16.03;;;14.40;;
11064;SDS011;5585;52.530;7.320;2024-03-07T02:12:03;17.50;;;14.60;;
11064;SDS011;5585;52.530;7.320;2024-03-07T02:14:30;15.93;;;14.23;;
11064;SDS011;5585;52.530;7.320;2024-03-07T02:16:57;16.33;;;14.67;;
11064;SDS011;5585;52.530;7.320;2024-03-07T02:19:24;14.50;;;13.00;;
11064;SDS011;5585;52.530;7.320;2024-03-07T02:21:51;16.83;;;14.17;;
11064;SDS011;5585;52.530;7.320;2024-03-07T02:24:18;15.67;;;14.07;;
11064;SDS011;5585;52.530;7.320;2024-03-07T02:26:44;15.73;;;13.93;;
11064;SDS011;5585;52.530;7.320;2024-03-07T02:29:11;15.60;;;14.00;;
11064;SDS011;5585;52.530;7.320;2024-03-07T02:31:37;15.87;;;13.57;;
11064;SDS011;5585;52.530;7.320;2024-03-07T02:34:06;15.83;;;14.10;;
11064;SDS011;5585;52.530;7.320;2024-03-07T02:36:33;15.80;;;13.87;;
11064;SDS011;5585;52.530;7.320;2024-03-07T02:39:01;15.23;;;13.63;;
11064;SDS011;5585;52.530;7.320;2024-03-07T02:41:27;14.93;;;13.10;;
11064;SDS011;5585;52.530;7.320;2024-03-07T02:43:54;15.37;;;13.50;;
11064;SDS011;5585;52.530;7.320;2024-03-07T02:46:20;13.47;;;12.07;;
11064;SDS011;5585;52.530;7.320;2024-03-07T02:48:46;14.30;;;12.90;;
11064;SDS011;5585;52.530;7.320;2024-03-07T02:51:13;15.07;;;13.47;;
11064;SDS011;5585;52.530;7.320;2024-03-07T02:53:39;14.50;;;12.93;;
11064;SDS011;5585;52.530;7.320;2024-03-07T02:56:07;14.23;;;12.80;;
11064;SDS011;5585;52.530;7.320;2024-03-07T02:58:34;16.23;;;14.53;;
11064;SDS011;5585;52.530;7.320;2024-03-07T03:01:01;15.63;;;13.90;;
11064;SDS011;5585;52.530;7.320;2024-03-07T03:03:28;14.83;;;13.33;;
11064;SDS011;5585;52.530;7.320;2024-03-07T03:05:56;16.37;;;14.27;;
11064;SDS011;5585;52.530;7.320;2024-03-07T03:08:23;16.07;;;14.20;;
11064;SDS011;5585;52.530;7.320;2024-03-07T03:10:50;17.70;;;14.97;;
11064;SDS011;5585;52.530;7.320;2024-03-07T03:13:17;15.90;;;13.63;;
11064;SDS011;5585;52.530;7.320;2024-03-07T03:15:44;15.93;;;13.33;;
11064;SDS011;5585;52.530;7.320;2024-03-07T03:18:10;14.43;;;12.90;;
11064;SDS011;5585;52.530;7.320;2024-03-07T03:20:37;13.87;;;12.47;;
11064;SDS011;5585;52.530;7.320;2024-03-07T03:23:05;14.43;;;12.73;;
11064;SDS011;5585;52.530;7.320;2024-03-07T03:25:36;14.77;;;12.73;;
11064;SDS011;5585;52.530;7.320;2024-03-07T03:28:03;14.50;;;12.77;;
11064;SDS011;5585;52.530;7.320;2024-03-07T03:30:31;13.47;;;12.07;;
11064;SDS011;5585;52.530;7.320;2024-03-07T03:32:57;14.00;;;12.17;;
11064;SDS011;5585;52.530;7.320;2024-03-07T03:35:24;14.67;;;13.17;;
11064;SDS011;5585;52.530;7.320;2024-03-07T03:37:50;15.33;;;12.83;;
11064;SDS011;5585;52.530;7.320;2024-03-07T03:40:17;15.93;;;13.23;;
11064;SDS011;5585;52.530;7.320;2024-03-07T03:42:44;14.90;;;13.20;;
11064;SDS011;5585;52.530;7.320;2024-03-07T03:45:10;16.00;;;12.70;;
11064;SDS011;5585;52.530;7.320;2024-03-07T03:47:41;13.80;;;12.40;;
11064;SDS011;5585;52.530;7.320;2024-03-07T03:50:08;15.33;;;13.70;;
11064;SDS011;5585;52.530;7.320;2024-03-07T03:52:36;14.50;;;12.97;;
11064;SDS011;5585;52.530;7.320;2024-03-07T03:55:02;14.27;;;12.83;;
11064;SDS011;5585;52.530;7.320;2024-03-07T03:57:30;15.73;;;13.50;;
11064;SDS011;5585;52.530;7.320;2024-03-07T03:59:57;15.73;;;13.17;;
11064;SDS011;5585;52.530;7.320;2024-03-07T04:02:23;14.43;;;12.93;;
11064;SDS011;5585;52.530;7.320;2024-03-07T04:04:51;15.77;;;14.07;;
11064;SDS011;5585;52.530;7.320;2024-03-07T04:07:18;14.50;;;12.37;;
11064;SDS011;5585;52.530;7.320;2024-03-07T04:09:45;15.60;;;12.17;;
11064;SDS011;5585;52.530;7.320;2024-03-07T04:12:12;13.20;;;11.90;;
11064;SDS011;5585;52.530;7.320;2024-03-07T04:14:39;15.43;;;12.30;;
11064;SDS011;5585;52.530;7.320;2024-03-07T04:17:06;13.17;;;11.37;;
11064;SDS011;5585;52.530;7.320;2024-03-07T04:19:33;13.00;;;11.60;;
11064;SDS011;5585;52.530;7.320;2024-03-07T04:22:01;13.77;;;12.00;;
11064;SDS011;5585;52.530;7.320;2024-03-07T04:24:28;13.93;;;12.03;;
11064;SDS011;5585;52.530;7.320;2024-03-07T04:26:55;14.53;;;12.27;;
11064;SDS011;5585;52.530;7.320;2024-03-07T04:29:20;13.97;;;11.97;;
11064;SDS011;5585;52.530;7.320;2024-03-07T04:31:47;13.23;;;11.77;;
11064;SDS011;5585;52.530;7.320;2024-03-07T04:34:13;14.03;;;11.90;;
11064;SDS011;5585;52.530;7.320;2024-03-07T04:36:39;13.73;;;12.40;;
11064;SDS011;5585;52.530;7.320;2024-03-07T04:39:08;17.33;;;12.87;;
11064;SDS011;5585;52.530;7.320;2024-03-07T04:41:47;14.90;;;13.23;;
11064;SDS011;5585;52.530;7.320;2024-03-07T04:44:13;15.20;;;13.70;;
11064;SDS011;5585;52.530;7.320;2024-03-07T04:46:40;13.37;;;11.97;;
11064;SDS011;5585;52.530;7.320;2024-03-07T04:49:09;12.80;;;11.50;;
11064;SDS011;5585;52.530;7.320;2024-03-07T04:51:35;13.83;;;11.37;;
11064;SDS011;5585;52.530;7.320;2024-03-07T04:54:02;13.20;;;11.80;;
11064;SDS011;5585;52.530;7.320;2024-03-07T04:56:30;12.63;;;11.27;;
11064;SDS011;5585;52.530;7.320;2024-03-07T04:58:56;14.10;;;12.33;;
11064;SDS011;5585;52.530;7.320;2024-03-07T05:01:23;13.93;;;11.93;;
11064;SDS011;5585;52.530;7.320;2024-03-07T05:03:50;13.57;;;11.90;;
11064;SDS011;5585;52.530;7.320;2024-03-07T05:06:17;13.07;;;11.67;;
11064;SDS011;5585;52.530;7.320;2024-03-07T05:08:44;12.60;;;11.30;;
11064;SDS011;5585;52.530;7.320;2024-03-07T05:11:10;13.63;;;12.23;;
11064;SDS011;5585;52.530;7.320;2024-03-07T05:13:38;14.13;;;12.63;;
11064;SDS011;5585;52.530;7.320;2024-03-07T05:16:07;15.27;;;12.33;;
11064;SDS011;5585;52.530;7.320;2024-03-07T05:18:33;13.70;;;11.90;;
11064;SDS011;5585;52.530;7.320;2024-03-07T05:21:00;16.13;;;12.50;;
11064;SDS011;5585;52.530;7.320;2024-03-07T05:23:47;14.00;;;11.90;;
11064;SDS011;5585;52.530;7.320;2024-03-07T05:26:14;14.37;;;11.47;;
11064;SDS011;5585;52.530;7.320;2024-03-07T05:28:42;13.90;;;12.40;;
11064;SDS011;5585;52.530;7.320;2024-03-07T05:31:08;13.10;;;11.70;;
11064;SDS011;5585;52.530;7.320;2024-03-07T05:33:37;13.57;;;12.07;;
11064;SDS011;5585;52.530;7.320;2024-03-07T05:36:05;14.87;;;13.30;;
11064;SDS011;5585;52.530;7.320;2024-03-07T05:38:39;14.53;;;13.10;;
11064;SDS011;5585;52.530;7.320;2024-03-07T05:41:06;13.23;;;11.83;;
11064;SDS011;5585;52.530;7.320;2024-03-07T05:43:35;15.00;;;13.40;;
11064;SDS011;5585;52.530;7.320;2024-03-07T05:46:03;12.70;;;11.20;;
11064;SDS011;5585;52.530;7.320;2024-03-07T05:48:31;13.57;;;12.10;;
11064;SDS011;5585;52.530;7.320;2024-03-07T05:50:58;12.33;;;11.03;;
11064;SDS011;5585;52.530;7.320;2024-03-07T05:53:25;12.70;;;11.40;;
11064;SDS011;5585;52.530;7.320;2024-03-07T05:55:51;14.43;;;12.93;;
11064;SDS011;5585;52.530;7.320;2024-03-07T05:58:18;13.60;;;11.60;;
11064;SDS011;5585;52.530;7.320;2024-03-07T06:00:45;13.70;;;12.00;;
11064;SDS011;5585;52.530;7.320;2024-03-07T06:03:16;12.97;;;11.67;;
11064;SDS011;5585;52.530;7.320;2024-03-07T06:05:42;13.57;;;11.30;;
11064;SDS011;5585;52.530;7.320;2024-03-07T06:08:13;14.87;;;11.40;;
11064;SDS011;5585;52.530;7.320;2024-03-07T06:10:41;13.40;;;12.10;;
11064;SDS011;5585;52.530;7.320;2024-03-07T06:13:07;12.73;;;11.43;;
11064;SDS011;5585;52.530;7.320;2024-03-07T06:15:34;12.47;;;11.23;;
11064;SDS011;5585;52.530;7.320;2024-03-07T06:18:02;14.10;;;12.70;;
11064;SDS011;5585;52.530;7.320;2024-03-07T06:20:29;14.13;;;12.77;;
11064;SDS011;5585;52.530;7.320;2024-03-07T06:22:57;13.77;;;11.93;;
11064;SDS011;5585;52.530;7.320;2024-03-07T06:25:24;13.93;;;12.27;;
11064;SDS011;5585;52.530;7.320;2024-03-07T06:28:01;13.27;;;11.87;;
11064;SDS011;5585;52.530;7.320;2024-03-07T06:30:34;13.70;;;12.30;;
11064;SDS011;5585;52.530;7.320;2024-03-07T06:33:01;14.23;;;12.17;;
11064;SDS011;5585;52.530;7.320;2024-03-07T06:35:27;12.90;;;11.60;;
11064;SDS011;5585;52.530;7.320;2024-03-07T06:37:55;13.97;;;12.27;;
11064;SDS011;5585;52.530;7.320;2024-03-07T06:40:21;13.23;;;11.63;;
11064;SDS011;5585;52.530;7.320;2024-03-07T06:42:48;14.47;;;12.77;;
11064;SDS011;5585;52.530;7.320;2024-03-07T06:45:14;15.23;;;13.23;;
11064;SDS011;5585;52.530;7.320;2024-03-07T06:47:41;13.70;;;12.30;;
11064;SDS011;5585;52.530;7.320;2024-03-07T06:50:07;14.50;;;12.70;;
11064;SDS011;5585;52.530;7.320;2024-03-07T06:52:34;15.53;;;14.07;;
11064;SDS011;5585;52.530;7.320;2024-03-07T06:55:03;15.07;;;13.57;;
11064;SDS011;5585;52.530;7.320;2024-03-07T06:57:32;15.03;;;13.40;;
11064;SDS011;5585;52.530;7.320;2024-03-07T06:59:59;14.40;;;12.17;;
11064;SDS011;5585;52.530;7.320;2024-03-07T07:02:25;13.77;;;12.27;;
11064;SDS011;5585;52.530;7.320;2024-03-07T07:04:52;15.07;;;13.57;;
11064;SDS011;5585;52.530;7.320;2024-03-07T07:07:19;14.43;;;12.87;;
11064;SDS011;5585;52.530;7.320;2024-03-07T07:09:45;16.80;;;13.43;;
11064;SDS011;5585;52.530;7.320;2024-03-07T07:12:18;14.90;;;13.30;;
11064;SDS011;5585;52.530;7.320;2024-03-07T07:14:44;16.20;;;13.53;;
11064;SDS011;5585;52.530;7.320;2024-03-07T07:17:10;15.13;;;13.30;;
11064;SDS011;5585;52.530;7.320;2024-03-07T07:19:38;15.37;;;13.77;;
11064;SDS011;5585;52.530;7.320;2024-03-07T07:22:05;17.43;;;15.53;;
11064;SDS011;5585;52.530;7.320;2024-03-07T07:24:31;17.03;;;14.37;;
11064;SDS011;5585;52.530;7.320;2024-03-07T07:26:59;16.47;;;14.67;;
11064;SDS011;5585;52.530;7.320;2024-03-07T07:29:28;17.03;;;14.33;;
11064;SDS011;5585;52.530;7.320;2024-03-07T07:31:54;18.10;;;15.83;;
11064;SDS011;5585;52.530;7.320;2024-03-07T07:34:21;19.23;;;17.23;;
11064;SDS011;5585;52.530;7.320;2024-03-07T07:36:47;19.97;;;16.13;;
11064;SDS011;5585;52.530;7.320;2024-03-07T07:39:14;19.27;;;16.50;;
11064;SDS011;5585;52.530;7.320;2024-03-07T07:41:41;19.53;;;16.37;;
11064;SDS011;5585;52.530;7.320;2024-03-07T07:44:08;21.63;;;18.67;;
11064;SDS011;5585;52.530;7.320;2024-03-07T07:46:36;20.33;;;17.63;;
11064;SDS011;5585;52.530;7.320;2024-03-07T07:49:02;19.27;;;17.10;;
11064;SDS011;5585;52.530;7.320;2024-03-07T07:51:29;21.77;;;17.93;;
11064;SDS011;5585;52.530;7.320;2024-03-07T07:53:55;21.67;;;18.97;;
11064;SDS011;5585;52.530;7.320;2024-03-07T07:56:22;19.57;;;17.07;;
11064;SDS011;5585;52.530;7.320;2024-03-07T07:58:49;21.03;;;18.63;;
11064;SDS011;5585;52.530;7.320;2024-03-07T08:01:16;20.00;;;17.90;;
11064;SDS011;5585;52.530;7.320;2024-03-07T08:03:44;21.30;;;17.40;;
11064;SDS011;5585;52.530;7.320;2024-03-07T08:06:11;21.20;;;18.77;;
11064;SDS011;5585;52.530;7.320;2024-03-07T08:08:37;22.90;;;20.40;;
11064;SDS011;5585;52.530;7.320;2024-03-07T08:11:04;20.93;;;18.73;;
11064;SDS011;5585;52.530;7.320;2024-03-07T08:13:30;20.67;;;17.43;;
11064;SDS011;5585;52.530;7.320;2024-03-07T08:15:57;21.73;;;18.17;;
11064;SDS011;5585;52.530;7.320;2024-03-07T08:18:24;21.00;;;18.73;;
11064;SDS011;5585;52.530;7.320;2024-03-07T08:20:53;22.13;;;17.43;;
11064;SDS011;5585;52.530;7.320;2024-03-07T08:23:20;21.87;;;18.93;;
11064;SDS011;5585;52.530;7.320;2024-03-07T08:25:48;21.47;;;17.03;;
11064;SDS011;5585;52.530;7.320;2024-03-07T08:28:14;18.83;;;16.83;;
11064;SDS011;5585;52.530;7.320;2024-03-07T08:30:41;19.47;;;17.33;;
11064;SDS011;5585;52.530;7.320;2024-03-07T08:33:07;18.97;;;15.90;;
11064;SDS011;5585;52.530;7.320;2024-03-07T08:35:35;19.17;;;16.53;;
11064;SDS011;5585;52.530;7.320;2024-03-07T08:38:03;19.47;;;16.73;;
11064;SDS011;5585;52.530;7.320;2024-03-07T08:40:30;22.20;;;17.20;;
11064;SDS011;5585;52.530;7.320;2024-03-07T08:42:57;21.57;;;16.23;;
11064;SDS011;5585;52.530;7.320;2024-03-07T08:45:24;19.20;;;16.47;;
11064;SDS011;5585;52.530;7.320;2024-03-07T08:47:51;20.40;;;16.80;;
11064;SDS011;5585;52.530;7.320;2024-03-07T08:50:19;19.43;;;16.10;;
11064;SDS011;5585;52.530;7.320;2024-03-07T08:52:46;19.33;;;16.57;;
11064;SDS011;5585;52.530;7.320;2024-03-07T08:55:15;19.13;;;15.57;;
11064;SDS011;5585;52.530;7.320;2024-03-07T08:57:42;20.53;;;17.63;;
11064;SDS011;5585;52.530;7.320;2024-03-07T09:00:11;18.20;;;15.67;;
11064;SDS011;5585;52.530;7.320;2024-03-07T09:02:47;16.77;;;14.97;;
11064;SDS011;5585;52.530;7.320;2024-03-07T09:05:15;17.90;;;14.73;;
11064;SDS011;5585;52.530;7.320;2024-03-07T09:07:42;17.07;;;15.27;;
11064;SDS011;5585;52.530;7.320;2024-03-07T09:10:10;17.37;;;15.43;;
11064;SDS011;5585;52.530;7.320;2024-03-07T09:12:37;17.00;;;15.20;;
11064;SDS011;5585;52.530;7.320;2024-03-07T09:15:04;17.77;;;15.97;;
11064;SDS011;5585;52.530;7.320;2024-03-07T09:17:31;17.03;;;15.17;;
11064;SDS011;5585;52.530;7.320;2024-03-07T09:19:57;17.13;;;15.17;;
11064;SDS011;5585;52.530;7.320;2024-03-07T09:22:24;17.20;;;15.40;;
11064;SDS011;5585;52.530;7.320;2024-03-07T09:24:50;16.90;;;14.47;;
11064;SDS011;5585;52.530;7.320;2024-03-07T09:27:17;16.47;;;14.57;;
11064;SDS011;5585;52.530;7.320;2024-03-07T09:29:46;17.40;;;15.50;;
11064;SDS011;5585;52.530;7.320;2024-03-07T09:32:13;16.17;;;14.47;;
11064;SDS011;5585;52.530;7.320;2024-03-07T09:34:39;16.40;;;14.70;;
11064;SDS011;5585;52.530;7.320;2024-03-07T09:37:06;16.70;;;14.20;;
11064;SDS011;5585;52.530;7.320;2024-03-07T09:39:33;17.20;;;15.33;;
11064;SDS011;5585;52.530;7.320;2024-03-07T09:42:00;16.80;;;15.00;;
11064;SDS011;5585;52.530;7.320;2024-03-07T09:44:27;16.93;;;15.17;;
11064;SDS011;5585;52.530;7.320;2024-03-07T09:46:55;16.60;;;14.90;;
11064;SDS011;5585;52.530;7.320;2024-03-07T09:49:23;16.50;;;14.80;;
11064;SDS011;5585;52.530;7.320;2024-03-07T09:51:50;17.20;;;15.40;;
11064;SDS011;5585;52.530;7.320;2024-03-07T09:54:19;17.40;;;15.60;;
11064;SDS011;5585;52.530;7.320;2024-03-07T09:56:46;17.43;;;15.53;;
11064;SDS011;5585;52.530;7.320;2024-03-07T09:59:14;16.13;;;14.43;;
11064;SDS011;5585;52.530;7.320;2024-03-07T10:01:45;16.80;;;14.97;;
11064;SDS011;5585;52.530;7.320;2024-03-07T10:04:14;17.03;;;15.23;;
11064;SDS011;5585;52.530;7.320;2024-03-07T10:06:43;16.93;;;15.13;;
11064;SDS011;5585;52.530;7.320;2024-03-07T10:09:10;17.37;;;14.67;;
11064;SDS011;5585;52.530;7.320;2024-03-07T10:11:38;19.97;;;15.87;;
11064;SDS011;5585;52.530;7.320;2024-03-07T10:14:06;18.17;;;15.40;;
11064;SDS011;5585;52.530;7.320;2024-03-07T10:16:33;17.03;;;15.23;;
11064;SDS011;5585;52.530;7.320;2024-03-07T10:18:59;17.07;;;14.77;;
11064;SDS011;5585;52.530;7.320;2024-03-07T10:21:28;19.30;;;16.00;;
11064;SDS011;5585;52.530;7.320;2024-03-07T10:24:03;18.70;;;16.63;;
11064;SDS011;5585;52.530;7.320;2024-03-07T10:26:31;18.07;;;15.43;;
11064;SDS011;5585;52.530;7.320;2024-03-07T10:28:59;18.73;;;16.20;;
11064;SDS011;5585;52.530;7.320;2024-03-07T10:31:29;19.03;;;15.87;;
11064;SDS011;5585;52.530;7.320;2024-03-07T10:33:57;22.07;;;16.80;;
11064;SDS011;5585;52.530;7.320;2024-03-07T10:36:24;19.23;;;16.70;;
11064;SDS011;5585;52.530;7.320;2024-03-07T10:38:52;19.43;;;17.20;;
11064;SDS011;5585;52.530;7.320;2024-03-07T10:41:20;18.97;;;16.07;;
11064;SDS011;5585;52.530;7.320;2024-03-07T10:43:51;21.47;;;17.23;;
11064;SDS011;5585;52.530;7.320;2024-03-07T10:46:20;21.20;;;17.67;;
11064;SDS011;5585;52.530;7.320;2024-03-07T10:48:49;22.63;;;18.23;;
11064;SDS011;5585;52.530;7.320;2024-03-07T10:51:20;25.43;;;19.43;;
11064;SDS011;5585;52.530;7.320;2024-03-07T10:53:52;25.53;;;19.33;;
11064;SDS011;5585;52.530;7.320;2024-03-07T10:56:29;26.33;;;19.70;;
11064;SDS011;5585;52.530;7.320;2024-03-07T10:59:01;26.00;;;20.60;;
11064;SDS011;5585;52.530;7.320;2024-03-07T11:01:32;29.63;;;22.53;;
11064;SDS011;5585;52.530;7.320;2024-03-07T11:03:59;29.57;;;22.13;;
11064;SDS011;5585;52.530;7.320;2024-03-07T11:06:29;27.87;;;21.63;;
11064;SDS011;5585;52.530;7.320;2024-03-07T11:09:00;28.57;;;21.20;;
11064;SDS011;5585;52.530;7.320;2024-03-07T11:11:28;24.53;;;19.37;;
11064;SDS011;5585;52.530;7.320;2024-03-07T11:13:56;27.13;;;20.40;;
11064;SDS011;5585;52.530;7.320;2024-03-07T11:16:24;28.57;;;21.20;;
11064;SDS011;5585;52.530;7.320;2024-03-07T11:21:40;31.20;;;21.03;;
11064;SDS011;5585;52.530;7.320;2024-03-07T11:24:08;34.23;;;22.93;;
11064;SDS011;5585;52.530;7.320;2024-03-07T11:26:34;30.90;;;20.63;;
11064;SDS011;5585;52.530;7.320;2024-03-07T11:29:00;33.53;;;22.67;;
11064;SDS011;5585;52.530;7.320;2024-03-07T11:31:29;30.40;;;21.93;;
11064;SDS011;5585;52.530;7.320;2024-03-07T11:34:13;29.63;;;21.20;;
11064;SDS011;5585;52.530;7.320;2024-03-07T11:36:44;32.03;;;22.23;;
11064;SDS011;5585;52.530;7.320;2024-03-07T11:41:54;30.73;;;22.17;;
11064;SDS011;5585;52.530;7.320;2024-03-07T11:44:20;29.93;;;20.73;;
11064;SDS011;5585;52.530;7.320;2024-03-07T11:46:46;30.73;;;21.63;;
11064;SDS011;5585;52.530;7.320;2024-03-07T11:49:13;31.67;;;21.27;;
11064;SDS011;5585;52.530;7.320;2024-03-07T11:51:40;30.43;;;20.77;;
11064;SDS011;5585;52.530;7.320;2024-03-07T11:54:07;30.53;;;21.43;;
11064;SDS011;5585;52.530;7.320;2024-03-07T11:56:33;32.80;;;22.17;;
11064;SDS011;5585;52.530;7.320;2024-03-07T11:59:01;28.63;;;20.57;;
11064;SDS011;5585;52.530;7.320;2024-03-07T12:01:29;28.60;;;20.93;;
11064;SDS011;5585;52.530;7.320;2024-03-07T12:03:57;32.07;;;22.30;;
11064;SDS011;5585;52.530;7.320;2024-03-07T12:06:23;30.80;;;20.93;;
11064;SDS011;5585;52.530;7.320;2024-03-07T12:08:50;35.10;;;23.47;;
11064;SDS011;5585;52.530;7.320;2024-03-07T12:11:17;31.97;;;22.10;;
11064;SDS011;5585;52.530;7.320;2024-03-07T12:13:44;34.90;;;22.07;;
11064;SDS011;5585;52.530;7.320;2024-03-07T12:16:12;35.37;;;24.13;;
11064;SDS011;5585;52.530;7.320;2024-03-07T12:18:39;33.80;;;22.67;;
11064;SDS011;5585;52.530;7.320;2024-03-07T12:21:07;33.50;;;22.23;;
11064;SDS011;5585;52.530;7.320;2024-03-07T12:23:34;33.53;;;22.80;;
11064;SDS011;5585;52.530;7.320;2024-03-07T12:26:01;31.60;;;21.90;;
11064;SDS011;5585;52.530;7.320;2024-03-07T12:28:28;33.83;;;23.77;;
11064;SDS011;5585;52.530;7.320;2024-03-07T12:30:58;32.43;;;22.73;;
11064;SDS011;5585;52.530;7.320;2024-03-07T12:33:29;34.73;;;23.50;;
11064;SDS011;5585;52.530;7.320;2024-03-07T12:36:01;34.37;;;22.87;;
11064;SDS011;5585;52.530;7.320;2024-03-07T12:38:31;34.07;;;21.50;;
11064;SDS011;5585;52.530;7.320;2024-03-07T12:41:04;33.67;;;23.13;;
11064;SDS011;5585;52.530;7.320;2024-03-07T12:43:32;34.90;;;23.10;;
11064;SDS011;5585;52.530;7.320;2024-03-07T12:45:59;34.63;;;22.87;;
11064;SDS011;5585;52.530;7.320;2024-03-07T12:48:25;34.43;;;22.83;;
11064;SDS011;5585;52.530;7.320;2024-03-07T12:50:52;32.87;;;22.57;;
11064;SDS011;5585;52.530;7.320;2024-03-07T12:53:19;32.30;;;21.93;;
11064;SDS011;5585;52.530;7.320;2024-03-07T12:55:47;29.67;;;21.20;;
11064;SDS011;5585;52.530;7.320;2024-03-07T12:58:13;36.30;;;22.80;;
11064;SDS011;5585;52.530;7.320;2024-03-07T13:00:40;35.57;;;22.20;;
11064;SDS011;5585;52.530;7.320;2024-03-07T13:03:07;33.07;;;21.63;;
11064;SDS011;5585;52.530;7.320;2024-03-07T13:05:34;32.87;;;21.90;;
11064;SDS011;5585;52.530;7.320;2024-03-07T13:08:04;31.33;;;21.10;;
11064;SDS011;5585;52.530;7.320;2024-03-07T13:10:30;29.83;;;20.53;;
11064;SDS011;5585;52.530;7.320;2024-03-07T13:12:57;31.70;;;21.10;;
11064;SDS011;5585;52.530;7.320;2024-03-07T13:15:23;29.40;;;19.63;;
11064;SDS011;5585;52.530;7.320;2024-03-07T13:17:50;32.10;;;21.40;;
11064;SDS011;5585;52.530;7.320;2024-03-07T13:20:18;29.40;;;19.60;;
11064;SDS011;5585;52.530;7.320;2024-03-07T13:22:47;30.00;;;20.47;;
11064;SDS011;5585;52.530;7.320;2024-03-07T13:25:15;29.27;;;19.70;;
11064;SDS011;5585;52.530;7.320;2024-03-07T13:27:43;30.80;;;19.93;;
11064;SDS011;5585;52.530;7.320;2024-03-07T13:30:11;30.40;;;20.07;;
11064;SDS011;5585;52.530;7.320;2024-03-07T13:32:51;25.70;;;18.33;;
11064;SDS011;5585;52.530;7.320;2024-03-07T13:35:19;27.23;;;18.83;;
11064;SDS011;5585;52.530;7.320;2024-03-07T13:37:46;26.50;;;18.67;;
11064;SDS011;5585;52.530;7.320;2024-03-07T13:40:15;25.97;;;18.43;;
11064;SDS011;5585;52.530;7.320;2024-03-07T13:42:51;24.23;;;17.03;;
11064;SDS011;5585;52.530;7.320;2024-03-07T13:45:18;24.80;;;16.83;;
11064;SDS011;5585;52.530;7.320;2024-03-07T13:47:46;25.80;;;17.33;;
11064;SDS011;5585;52.530;7.320;2024-03-07T13:50:13;22.10;;;16.53;;
11064;SDS011;5585;52.530;7.320;2024-03-07T13:52:40;24.07;;;16.90;;
11064;SDS011;5585;52.530;7.320;2024-03-07T13:55:20;21.80;;;15.63;;
11064;SDS011;5585;52.530;7.320;2024-03-07T13:57:49;23.17;;;16.17;;
11064;SDS011;5585;52.530;7.320;2024-03-07T14:00:25;25.37;;;16.97;;
11064;SDS011;5585;52.530;7.320;2024-03-07T14:05:53;24.40;;;17.20;;
11064;SDS011;5585;52.530;7.320;2024-03-07T14:08:32;25.43;;;17.33;;
11064;SDS011;5585;52.530;7.320;2024-03-07T14:11:14;24.60;;;17.97;;
11064;SDS011;5585;52.530;7.320;2024-03-07T14:13:48;22.70;;;16.80;;
11064;SDS011;5585;52.530;7.320;2024-03-07T14:16:43;24.13;;;16.30;;
11064;SDS011;5585;52.530;7.320;2024-03-07T14:22:00;19.87;;;14.30;;
11064;SDS011;5585;52.530;7.320;2024-03-07T14:24:48;19.73;;;15.20;;
11064;SDS011;5585;52.530;7.320;2024-03-07T14:27:27;20.50;;;15.47;;
11064;SDS011;5585;52.530;7.320;2024-03-07T14:30:05;21.00;;;15.13;;
11064;SDS011;5585;52.530;7.320;2024-03-07T14:32:36;20.57;;;14.97;;
11064;SDS011;5585;52.530;7.320;2024-03-07T14:35:05;22.43;;;15.50;;
11064;SDS011;5585;52.530;7.320;2024-03-07T14:37:37;20.83;;;15.07;;
11064;SDS011;5585;52.530;7.320;2024-03-07T14:40:08;23.27;;;15.67;;
11064;SDS011;5585;52.530;7.320;2024-03-07T14:42:39;20.03;;;15.70;;
11064;SDS011;5585;52.530;7.320;2024-03-07T14:45:06;20.73;;;14.80;;
11064;SDS011;5585;52.530;7.320;2024-03-07T14:47:34;19.53;;;14.47;;
11064;SDS011;5585;52.530;7.320;2024-03-07T14:50:01;18.43;;;13.93;;